createdAt,value
2022-09-05T00:00:12.230Z,20.60
2022-09-05T00:03:05.093Z,20.80
2022-09-05T00:06:02.390Z,20.80
2022-09-05T00:08:59.275Z,20.70
2022-09-05T00:11:46.701Z,20.30
2022-09-05T00:15:16.165Z,20.50
2022-09-05T00:18:02.869Z,20.70
2022-09-05T00:24:19.136Z,20.70
2022-09-05T00:24:32.400Z,20.80
2022-09-05T00:26:50.081Z,20.70
2022-09-05T00:30:48.647Z,20.70
2022-09-05T00:33:16.609Z,20.70
2022-09-05T00:36:09.813Z,20.70
2022-09-05T00:38:41.333Z,20.80
2022-09-05T00:41:12.786Z,20.60
2022-09-05T00:43:43.076Z,20.70
2022-09-05T00:46:24.837Z,20.80
2022-09-05T00:49:16.358Z,20.80
2022-09-05T00:51:56.101Z,20.60
2022-09-05T00:54:47.117Z,20.70
2022-09-05T00:57:35.649Z,20.80
2022-09-05T01:00:39.088Z,21.00
2022-09-05T01:03:42.687Z,20.70
2022-09-05T01:06:18.410Z,20.80
2022-09-05T01:09:15.571Z,20.80
2022-09-05T01:12:18.553Z,20.80
2022-09-05T01:14:59.997Z,20.80
2022-09-05T01:18:02.046Z,20.70
2022-09-05T01:20:46.537Z,20.70
2022-09-05T01:23:34.488Z,20.70
2022-09-05T01:26:19.782Z,20.80
2022-09-05T01:29:18.402Z,20.80
2022-09-05T01:32:30.125Z,20.80
2022-09-05T01:35:27.927Z,20.80
2022-09-05T01:38:10.076Z,20.80
2022-09-05T01:40:51.573Z,20.80
2022-09-05T01:46:46.496Z,20.80
2022-09-05T01:49:24.996Z,20.80
2022-09-05T01:51:54.323Z,20.80
2022-09-05T01:54:47.637Z,20.80
2022-09-05T01:57:40.047Z,20.80
2022-09-05T02:00:21.577Z,20.80
2022-09-05T02:02:54.246Z,20.70
2022-09-05T02:05:48.816Z,20.80
2022-09-05T02:11:05.075Z,20.80
2022-09-05T02:16:38.309Z,20.80
2022-09-05T02:21:56.451Z,20.80
2022-09-05T02:24:37.628Z,20.80
2022-09-05T02:28:04.956Z,20.80
2022-09-05T02:30:26.562Z,20.70
2022-09-05T02:33:13.514Z,20.80
2022-09-05T02:35:45.805Z,20.70
2022-09-05T02:43:27.632Z,20.80
2022-09-05T02:45:10.274Z,20.80
2022-09-05T02:45:16.849Z,20.80
2022-09-05T02:48:09.664Z,20.80
2022-09-05T02:57:40.614Z,20.80
2022-09-05T02:57:45.044Z,20.80
2022-09-05T02:59:58.434Z,20.70
2022-09-05T03:03:02.472Z,20.80
2022-09-05T03:08:30.561Z,20.80
2022-09-05T03:11:30.850Z,20.70
2022-09-05T03:17:22.594Z,20.80
2022-09-05T03:20:23.190Z,20.70
2022-09-05T03:23:20.953Z,20.70
2022-09-05T03:26:19.092Z,20.70
2022-09-05T03:29:10.825Z,20.70
2022-09-05T03:34:42.672Z,20.80
2022-09-05T03:39:53.003Z,20.80
2022-09-05T03:42:38.366Z,20.70
2022-09-05T03:54:33.763Z,20.80
2022-09-05T03:57:15.963Z,20.70
2022-09-05T03:57:19.162Z,20.70
2022-09-05T03:59:53.942Z,20.70
2022-09-05T04:04:51.274Z,20.60
2022-09-05T04:08:28.799Z,20.70
2022-09-05T04:08:41.876Z,20.70
2022-09-05T04:11:32.058Z,20.70
2022-09-05T04:14:29.684Z,20.70
2022-09-05T04:17:18.994Z,20.70
2022-09-05T04:19:59.603Z,20.70
2022-09-05T04:25:13.738Z,20.70
2022-09-05T04:28:12.879Z,20.70
2022-09-05T04:31:00.878Z,20.70
2022-09-05T04:33:45.604Z,20.70
2022-09-05T04:36:18.133Z,20.80
2022-09-05T04:41:39.506Z,20.80
2022-09-05T04:44:30.498Z,20.70
2022-09-05T04:47:18.226Z,20.70
2022-09-05T04:49:57.085Z,20.50
2022-09-05T04:55:33.345Z,20.70
2022-09-05T05:06:03.838Z,20.80
2022-09-05T05:06:14.487Z,20.80
2022-09-05T05:06:46.040Z,20.80
2022-09-05T05:09:31.546Z,20.70
2022-09-05T05:16:29.910Z,20.70
2022-09-05T05:18:11.990Z,20.70
2022-09-05T05:18:36.752Z,20.70
2022-09-05T05:21:05.740Z,20.70
2022-09-05T05:23:35.415Z,20.50
2022-09-05T05:26:05.971Z,20.70
2022-09-05T05:29:03.480Z,20.70
2022-09-05T05:31:32.830Z,20.70
2022-09-05T05:34:03.992Z,20.70
2022-09-05T05:37:29.744Z,20.70
2022-09-05T05:40:08.580Z,20.70
2022-09-05T05:42:39.432Z,20.70
2022-09-05T05:45:16.918Z,20.70
2022-09-05T05:50:33.429Z,20.40
2022-09-05T05:55:53.155Z,20.70
2022-09-05T05:58:38.055Z,20.70
2022-09-05T06:01:38.863Z,20.70
2022-09-05T06:04:26.894Z,20.70
2022-09-05T06:07:29.116Z,20.70
2022-09-05T06:14:54.843Z,20.70
2022-09-05T06:14:56.141Z,20.70
2022-09-05T06:16:37.951Z,20.70
2022-09-05T06:19:59.666Z,20.70
2022-09-05T06:22:29.031Z,20.70
2022-09-05T06:25:32.757Z,20.70
2022-09-05T06:28:22.626Z,20.70
2022-09-05T06:31:29.039Z,20.70
2022-09-05T06:33:56.758Z,20.60
2022-09-05T06:39:10.164Z,20.50
2022-09-05T06:42:01.065Z,20.70
2022-09-05T06:44:52.243Z,20.70
2022-09-05T06:47:33.365Z,20.70
2022-09-05T06:50:27.430Z,20.70
2022-09-05T06:53:28.559Z,20.70
2022-09-05T06:55:59.701Z,20.90
2022-09-05T06:58:57.885Z,20.50
2022-09-05T07:01:59.777Z,20.70
2022-09-05T07:05:37.334Z,20.70
2022-09-05T07:07:55.631Z,20.70
2022-09-05T07:13:09.044Z,20.50
2022-09-05T07:15:56.130Z,20.70
2022-09-05T07:24:07.014Z,20.80
2022-09-05T07:26:49.652Z,20.60
2022-09-05T07:29:20.798Z,20.70
2022-09-05T07:31:53.580Z,20.70
2022-09-05T07:34:30.181Z,20.70
2022-09-05T07:37:14.602Z,20.70
2022-09-05T07:40:04.087Z,20.70
2022-09-05T07:45:47.708Z,20.70
2022-09-05T07:55:24.809Z,20.60
2022-09-05T07:57:03.985Z,20.70
2022-09-05T07:57:25.582Z,20.70
2022-09-05T07:59:41.531Z,20.80
2022-09-05T08:02:11.508Z,20.70
2022-09-05T08:04:40.713Z,20.80
2022-09-05T08:07:48.875Z,20.70
2022-09-05T08:13:23.910Z,20.80
2022-09-05T08:16:13.014Z,20.70
2022-09-05T08:18:56.497Z,20.70
2022-09-05T08:24:51.550Z,20.70
2022-09-05T08:27:28.563Z,20.70
2022-09-05T08:30:26.852Z,20.70
2022-09-05T08:33:10.577Z,20.70
2022-09-05T08:36:00.719Z,20.70
2022-09-05T08:38:37.442Z,20.70
2022-09-05T08:41:23.668Z,20.70
2022-09-05T08:46:39.459Z,20.70
2022-09-05T08:47:28.097Z,20.80
2022-09-05T08:50:32.927Z,20.80
2022-09-05T08:55:45.418Z,20.80
2022-09-05T08:58:21.053Z,20.70
2022-09-05T09:01:00.146Z,20.70
2022-09-05T09:04:12.939Z,20.70
2022-09-05T09:07:12.253Z,20.70
2022-09-05T09:10:25.370Z,20.80
2022-09-05T09:13:13.901Z,20.70
2022-09-05T09:15:50.984Z,20.60
2022-09-05T09:18:19.598Z,20.70
2022-09-05T09:21:12.392Z,21.20
2022-09-05T09:24:22.206Z,20.70
2022-09-05T09:27:14.269Z,20.70
2022-09-05T09:29:46.307Z,20.70
2022-09-05T09:32:21.517Z,20.80
2022-09-05T09:35:12.217Z,20.70
2022-09-05T09:37:58.682Z,20.70
2022-09-05T09:41:00.478Z,20.70
2022-09-05T09:43:52.918Z,20.70
2022-09-05T09:46:42.049Z,20.70
2022-09-05T09:52:28.260Z,20.70
2022-09-05T09:55:40.785Z,20.80
2022-09-05T09:58:29.346Z,20.70
2022-09-05T10:01:35.818Z,20.80
2022-09-05T10:10:51.316Z,20.80
2022-09-05T10:10:54.224Z,20.80
2022-09-05T10:13:09.291Z,20.80
2022-09-05T10:15:45.068Z,20.80
2022-09-05T10:21:19.733Z,20.80
2022-09-05T10:24:16.402Z,20.80
2022-09-05T10:27:10.106Z,20.80
2022-09-05T10:35:04.766Z,20.80
2022-09-05T10:37:57.163Z,20.80
2022-09-05T10:40:27.167Z,20.80
2022-09-05T10:43:01.968Z,20.80
2022-09-05T10:48:51.117Z,20.80
2022-09-05T10:51:32.626Z,20.80
2022-09-05T10:54:28.306Z,20.80
2022-09-05T10:57:21.119Z,20.80
2022-09-05T11:02:21.385Z,20.80
2022-09-05T11:02:46.701Z,20.80
2022-09-05T11:05:22.506Z,20.80
2022-09-05T11:07:49.159Z,20.90
2022-09-05T11:10:33.783Z,20.80
2022-09-05T11:13:10.229Z,20.80
2022-09-05T11:16:03.775Z,20.80
2022-09-05T11:19:04.506Z,20.80
2022-09-05T11:21:42.826Z,20.80
2022-09-05T11:27:24.966Z,20.80
2022-09-05T11:30:00.411Z,20.80
2022-09-05T11:36:29.657Z,20.80
2022-09-05T11:40:04.812Z,20.80
2022-09-05T11:40:05.248Z,20.80
2022-09-05T11:42:16.885Z,20.80
2022-09-05T11:45:04.841Z,20.70
2022-09-05T11:50:41.777Z,20.80
2022-09-05T11:53:32.419Z,20.80
2022-09-05T11:56:30.913Z,20.80
2022-09-05T12:04:39.278Z,20.80
2022-09-05T12:07:33.594Z,20.80
2022-09-05T12:10:47.916Z,20.80
2022-09-05T12:16:07.756Z,20.80
2022-09-05T12:19:19.607Z,20.80
2022-09-05T12:22:25.385Z,20.80
2022-09-05T12:26:12.035Z,20.80
2022-09-05T12:32:19.647Z,20.80
2022-09-05T12:36:12.297Z,20.80
2022-09-05T12:40:57.496Z,20.80
2022-09-05T12:44:36.414Z,20.80
2022-09-05T12:46:01.672Z,20.80
2022-09-05T12:48:46.854Z,20.90
2022-09-05T12:51:45.723Z,20.80
2022-09-05T12:54:33.665Z,20.90
2022-09-05T13:00:49.567Z,20.80
2022-09-05T13:02:56.792Z,20.80
2022-09-05T13:03:28.170Z,20.80
2022-09-05T13:05:57.034Z,20.80
2022-09-05T13:08:29.114Z,20.80
2022-09-05T13:14:49.232Z,20.80
2022-09-05T13:14:53.958Z,20.80
2022-09-05T13:16:43.936Z,20.80
2022-09-05T13:19:22.930Z,20.80
2022-09-05T13:24:32.169Z,20.80
2022-09-05T13:27:23.412Z,20.80
2022-09-05T13:30:57.709Z,20.80
2022-09-05T13:37:59.805Z,21.10
2022-09-05T13:38:07.303Z,20.80
2022-09-05T13:39:05.753Z,20.80
2022-09-05T13:41:41.950Z,20.70
2022-09-05T13:44:27.677Z,20.80
2022-09-05T13:47:29.389Z,20.80
2022-09-05T13:50:05.752Z,20.80
2022-09-05T13:52:39.192Z,20.80
2022-09-05T13:55:09.999Z,20.80
2022-09-05T13:57:41.822Z,20.90
2022-09-05T14:05:59.210Z,20.70
2022-09-05T14:11:56.130Z,20.80
2022-09-05T14:23:07.334Z,20.80
2022-09-05T14:28:21.162Z,20.80
2022-09-05T14:33:15.133Z,20.80
2022-09-05T14:40:30.757Z,20.90
2022-09-05T14:43:37.539Z,20.80
2022-09-05T14:46:28.428Z,20.90
2022-09-05T14:49:05.480Z,20.90
2022-09-05T14:51:46.702Z,20.80
2022-09-05T15:02:11.184Z,20.90
2022-09-05T15:02:43.968Z,20.90
2022-09-05T15:03:02.142Z,20.80
2022-09-05T15:08:03.711Z,20.80
2022-09-05T15:12:25.033Z,20.90
2022-09-05T15:13:34.475Z,20.90
2022-09-05T15:16:09.585Z,20.90
2022-09-05T15:18:43.822Z,20.90
2022-09-05T15:21:33.614Z,20.90
2022-09-05T15:24:21.485Z,20.80
2022-09-05T15:27:00.175Z,20.90
2022-09-05T15:29:35.054Z,20.90
2022-09-05T15:32:21.138Z,20.90
2022-09-05T15:37:36.607Z,20.90
2022-09-05T15:40:23.029Z,20.90
2022-09-05T15:45:32.209Z,20.90
2022-09-05T15:50:28.889Z,20.90
2022-09-05T15:55:26.684Z,20.80
2022-09-05T15:58:01.327Z,20.90
2022-09-05T16:00:34.145Z,20.90
2022-09-05T16:07:08.451Z,20.90
2022-09-05T16:10:34.515Z,20.90
2022-09-05T16:10:50.281Z,20.80
2022-09-05T16:12:18.759Z,20.90
2022-09-05T16:15:39.450Z,21.00
2022-09-05T16:23:28.982Z,21.00
2022-09-05T16:23:40.490Z,21.00
2022-09-05T16:26:25.545Z,21.00
2022-09-05T16:28:59.984Z,21.00
2022-09-05T16:31:38.484Z,21.00
2022-09-05T16:34:13.004Z,21.00
2022-09-05T16:37:13.041Z,21.10
2022-09-05T16:39:57.284Z,21.10
2022-09-05T16:42:46.830Z,21.00
2022-09-05T16:45:30.155Z,21.00
2022-09-05T16:48:02.462Z,21.10
2022-09-05T16:50:50.060Z,21.10
2022-09-05T16:53:30.062Z,20.90
2022-09-05T16:56:04.121Z,20.90
2022-09-05T16:58:37.468Z,21.10
2022-09-05T17:01:31.194Z,21.10
2022-09-05T17:04:20.682Z,21.10
2022-09-05T17:09:24.394Z,21.10
2022-09-05T17:12:00.140Z,21.10
2022-09-05T17:14:35.154Z,21.10
2022-09-05T17:17:44.018Z,21.20
2022-09-05T17:20:09.441Z,21.20
2022-09-05T17:26:11.629Z,21.20
2022-09-05T17:29:29.818Z,21.20
2022-09-05T17:34:37.896Z,21.10
2022-09-05T17:37:31.682Z,21.10
2022-09-05T17:40:17.729Z,21.10
2022-09-05T17:43:28.859Z,21.10
2022-09-05T17:46:13.557Z,21.10
2022-09-05T17:49:18.045Z,21.10
2022-09-05T17:51:41.939Z,21.10
2022-09-05T17:54:27.181Z,21.10
2022-09-05T17:56:53.877Z,21.00
2022-09-05T17:59:21.110Z,21.30
2022-09-05T18:07:19.713Z,21.10
2022-09-05T18:10:15.211Z,21.00
2022-09-05T18:15:41.057Z,21.30
2022-09-05T18:21:22.105Z,21.20
2022-09-05T18:23:58.374Z,21.00
2022-09-05T18:26:27.957Z,21.00
2022-09-05T18:29:57.374Z,21.10
2022-09-05T18:32:38.897Z,21.20
2022-09-05T18:35:36.540Z,21.20
2022-09-05T18:38:15.430Z,21.20
2022-09-05T18:41:07.269Z,21.20
2022-09-05T18:44:12.215Z,21.30
2022-09-05T18:50:01.624Z,21.30
2022-09-05T18:52:23.361Z,21.30
2022-09-05T18:55:33.960Z,21.30
2022-09-05T18:57:50.020Z,21.30
2022-09-05T19:00:44.148Z,21.30
2022-09-05T19:06:34.590Z,21.30
2022-09-05T19:11:53.290Z,21.40
2022-09-05T19:14:33.126Z,21.30
2022-09-05T19:17:28.564Z,21.30
2022-09-05T19:20:33.286Z,21.30
2022-09-05T19:25:45.549Z,21.30
2022-09-05T19:36:47.059Z,21.30
2022-09-05T19:36:50.841Z,21.30
2022-09-05T19:36:59.600Z,21.30
2022-09-05T19:37:29.488Z,21.30
2022-09-05T19:46:41.658Z,21.30
2022-09-05T19:47:42.241Z,21.40
2022-09-05T19:48:30.760Z,21.30
2022-09-05T19:51:26.992Z,21.30
2022-09-05T19:54:04.674Z,21.10
2022-09-05T19:56:47.299Z,21.30
2022-09-05T20:01:48.060Z,21.30
2022-09-05T20:04:18.591Z,21.50
2022-09-05T20:06:47.369Z,21.30
2022-09-05T20:14:36.572Z,21.30
2022-09-05T20:17:27.270Z,21.30
2022-09-05T20:20:09.565Z,21.30
2022-09-05T20:22:48.831Z,21.30
2022-09-05T20:25:37.194Z,21.40
2022-09-05T20:28:10.012Z,21.30
2022-09-05T20:30:44.754Z,21.40
2022-09-05T20:33:51.918Z,21.30
2022-09-05T20:43:12.541Z,21.40
2022-09-05T20:43:24.164Z,21.30
2022-09-05T20:43:31.366Z,21.30
2022-09-05T20:45:45.283Z,21.30
2022-09-05T20:54:15.236Z,21.30
2022-09-05T20:54:25.609Z,20.90
2022-09-05T20:56:48.254Z,21.10
2022-09-05T20:59:44.347Z,21.30
2022-09-05T21:02:21.989Z,21.30
2022-09-05T21:05:06.989Z,21.30
2022-09-05T21:12:59.019Z,21.30
2022-09-05T21:15:53.678Z,21.30
2022-09-05T21:18:22.699Z,21.20
2022-09-05T21:21:28.020Z,21.40
2022-09-05T21:24:17.796Z,21.30
2022-09-05T21:26:47.947Z,22.30
2022-09-05T21:29:17.365Z,21.30
2022-09-05T21:34:27.898Z,21.30
2022-09-05T21:37:06.424Z,21.20
2022-09-05T21:39:40.209Z,21.20
2022-09-05T21:47:52.239Z,21.30
2022-09-05T21:50:30.743Z,21.20
2022-09-05T21:53:43.230Z,21.50
2022-09-05T21:59:26.888Z,21.20
2022-09-05T21:59:29.610Z,21.30
2022-09-05T22:01:44.652Z,21.20
2022-09-05T22:04:11.241Z,21.20
2022-09-05T22:06:38.301Z,21.20
2022-09-05T22:11:41.137Z,21.10
2022-09-05T22:16:40.043Z,21.20
2022-09-05T22:24:10.926Z,21.30
2022-09-05T22:27:10.836Z,21.20
2022-09-05T22:29:34.425Z,21.30
2022-09-05T22:34:28.236Z,21.00
2022-09-05T22:36:57.778Z,21.20
2022-09-05T22:44:41.087Z,21.30
2022-09-05T22:47:11.563Z,21.20
2022-09-05T22:49:38.258Z,21.10
2022-09-05T22:52:06.989Z,21.20
2022-09-05T22:54:35.045Z,21.20
2022-09-05T23:01:56.291Z,21.20
2022-09-05T23:09:17.603Z,21.10
2022-09-05T23:14:11.572Z,21.30
2022-09-05T23:21:34.176Z,21.20
2022-09-05T23:28:55.083Z,21.20
2022-09-05T23:33:48.902Z,21.20
2022-09-05T23:36:15.557Z,21.10
2022-09-05T23:41:12.780Z,21.10
2022-09-05T23:46:07.597Z,21.20
2022-09-05T23:51:09.771Z,21.20
2022-09-05T23:53:36.957Z,21.20
